createdAt,value
2022-09-12T00:01:27.245Z,98784.56
2022-09-12T00:04:00.311Z,98784.72
2022-09-12T00:06:35.664Z,98786.84
2022-09-12T00:09:10.295Z,98784.34
2022-09-12T00:11:41.020Z,98782.88
2022-09-12T00:14:11.870Z,98778.84
2022-09-12T00:16:41.351Z,98780.00
2022-09-12T00:19:10.944Z,98782.28
2022-09-12T00:21:41.083Z,98790.78
2022-09-12T00:24:10.802Z,98746.34
2022-09-12T00:26:38.860Z,98779.34
2022-09-12T00:29:06.947Z,98748.31
2022-09-12T00:31:35.478Z,98788.44
2022-09-12T00:34:03.363Z,98785.63
2022-09-12T00:36:31.485Z,98749.00
2022-09-12T00:38:59.586Z,98782.00
2022-09-12T00:41:28.954Z,98795.13
2022-09-12T00:44:11.002Z,98749.34
2022-09-12T00:47:10.260Z,98752.84
2022-09-12T00:50:00.254Z,98775.53
2022-09-12T00:52:44.696Z,98778.84
2022-09-12T00:55:41.563Z,98783.13
2022-09-12T00:58:23.602Z,98792.31
2022-09-12T01:00:53.763Z,98768.66
2022-09-12T01:03:23.921Z,98753.81
2022-09-12T01:06:09.678Z,98789.31
2022-09-12T01:08:38.916Z,98748.38
2022-09-12T01:11:09.592Z,98782.50
2022-09-12T01:13:38.101Z,98777.66
2022-09-12T01:16:07.732Z,98790.00
2022-09-12T01:19:25.680Z,98795.16
2022-09-12T01:22:28.464Z,98799.78
2022-09-12T01:25:22.066Z,98791.97
2022-09-12T01:28:12.729Z,98751.03
2022-09-12T01:31:01.210Z,98776.34
2022-09-12T01:34:06.553Z,98788.03
2022-09-12T01:37:10.753Z,98773.06
2022-09-12T01:40:07.209Z,98773.53
2022-09-12T01:42:47.165Z,98791.03
2022-09-12T01:45:34.976Z,98783.75
2022-09-12T01:48:21.911Z,98753.91
2022-09-12T01:51:37.060Z,98750.94
2022-09-12T01:54:22.495Z,98750.13
2022-09-12T01:56:57.626Z,98778.44
2022-09-12T01:59:47.756Z,98745.78
2022-09-12T02:02:26.108Z,98796.72
2022-09-12T02:05:17.613Z,98795.41
2022-09-12T02:07:51.921Z,98760.25
2022-09-12T02:10:23.653Z,98792.75
2022-09-12T02:12:59.722Z,98749.78
2022-09-12T02:15:41.208Z,98795.06
2022-09-12T02:18:13.217Z,98784.09
2022-09-12T02:20:48.410Z,98755.09
2022-09-12T02:23:27.851Z,98761.78
2022-09-12T02:26:02.307Z,98796.56
2022-09-12T02:28:37.065Z,98762.41
2022-09-12T02:31:33.936Z,98794.22
2022-09-12T02:34:41.331Z,98720.97
2022-09-12T02:38:09.265Z,98794.41
2022-09-12T02:40:37.945Z,98780.72
2022-09-12T02:43:07.229Z,98808.53
2022-09-12T02:45:36.823Z,98796.38
2022-09-12T02:48:24.745Z,98776.69
2022-09-12T02:50:53.516Z,98771.03
2022-09-12T02:53:22.407Z,98811.03
2022-09-12T02:55:51.787Z,98804.00
2022-09-12T02:58:27.737Z,98804.19
2022-09-12T03:01:10.232Z,98771.72
2022-09-12T03:03:59.576Z,98818.81
2022-09-12T03:06:36.082Z,98819.00
2022-09-12T03:09:41.001Z,98809.84
2022-09-12T03:12:19.349Z,98818.00
2022-09-12T03:15:22.791Z,98773.69
2022-09-12T03:18:17.421Z,98801.66
2022-09-12T03:21:18.425Z,98835.63
2022-09-12T03:24:01.614Z,98830.97
2022-09-12T03:26:55.605Z,98792.13
2022-09-12T03:29:26.316Z,98835.63
2022-09-12T03:31:58.303Z,98831.13
2022-09-12T03:34:28.531Z,98791.81
2022-09-12T03:36:57.013Z,98838.44
2022-09-12T03:39:27.098Z,98837.59
2022-09-12T03:41:56.053Z,98794.28
2022-09-12T03:44:24.656Z,98841.56
2022-09-12T03:46:53.098Z,98843.25
2022-09-12T03:49:20.930Z,98844.22
2022-09-12T03:51:48.960Z,98785.25
2022-09-12T03:54:17.008Z,98838.72
2022-09-12T03:56:45.546Z,98837.41
2022-09-12T03:59:13.827Z,98846.53
2022-09-12T04:01:42.644Z,98837.91
2022-09-12T04:04:10.407Z,98851.84
2022-09-12T04:06:38.452Z,98850.19
2022-09-12T04:09:06.545Z,98855.50
2022-09-12T04:11:35.931Z,98818.88
2022-09-12T04:14:04.047Z,98865.16
2022-09-12T04:16:32.633Z,98861.00
2022-09-12T04:19:00.604Z,98869.66
2022-09-12T04:21:28.503Z,98861.84
2022-09-12T04:23:56.983Z,98869.31
2022-09-12T04:26:24.819Z,98866.00
2022-09-12T04:28:55.129Z,98884.13
2022-09-12T04:31:23.797Z,98853.75
2022-09-12T04:34:00.860Z,98880.63
2022-09-12T04:36:29.999Z,98882.78
2022-09-12T04:38:58.704Z,98875.47
2022-09-12T04:41:31.325Z,98895.41
2022-09-12T04:44:03.685Z,98883.81
2022-09-12T04:46:36.428Z,98878.44
2022-09-12T04:49:05.589Z,98887.44
2022-09-12T04:51:37.446Z,98878.75
2022-09-12T04:54:16.297Z,98883.25
2022-09-12T04:56:47.820Z,98854.09
2022-09-12T04:59:17.738Z,98921.03
2022-09-12T05:01:45.759Z,98906.38
2022-09-12T05:04:14.449Z,98913.56
2022-09-12T05:06:43.569Z,98913.06
2022-09-12T05:09:14.332Z,98888.50
2022-09-12T05:12:03.759Z,98924.22
2022-09-12T05:14:33.553Z,98889.19
2022-09-12T05:17:02.443Z,98923.69
2022-09-12T05:19:31.290Z,98921.88
2022-09-12T05:21:59.934Z,98922.84
2022-09-12T05:24:29.028Z,98934.50
2022-09-12T05:26:57.050Z,98892.53
2022-09-12T05:29:25.318Z,98918.53
2022-09-12T05:31:54.040Z,98930.03
2022-09-12T05:34:22.589Z,98898.97
2022-09-12T05:36:50.452Z,98906.69
2022-09-12T05:39:18.913Z,98933.66
2022-09-12T05:41:47.420Z,98900.81
2022-09-12T05:44:15.635Z,98948.50
2022-09-12T05:46:47.037Z,98941.34
2022-09-12T05:49:15.014Z,98937.34
2022-09-12T05:51:45.753Z,98903.31
2022-09-12T05:54:18.120Z,98940.16
2022-09-12T05:56:47.077Z,98947.97
2022-09-12T05:59:22.114Z,98952.28
2022-09-12T06:01:50.424Z,98944.09
2022-09-12T06:04:18.573Z,98950.94
2022-09-12T06:06:47.460Z,98954.13
2022-09-12T06:09:17.243Z,98916.59
2022-09-12T06:11:46.556Z,98952.97
2022-09-12T06:14:17.823Z,98942.75
2022-09-12T06:16:47.568Z,98917.41
2022-09-12T06:19:19.279Z,98955.09
2022-09-12T06:21:49.603Z,98919.78
2022-09-12T06:24:19.078Z,98917.06
2022-09-12T06:26:48.567Z,98961.63
2022-09-12T06:29:16.998Z,98966.09
2022-09-12T06:31:45.559Z,98965.41
2022-09-12T06:34:16.356Z,98966.94
2022-09-12T06:36:47.267Z,98959.13
2022-09-12T06:39:21.222Z,98919.09
2022-09-12T06:41:51.741Z,98954.94
2022-09-12T06:44:22.794Z,98936.66
2022-09-12T06:46:51.573Z,98953.59
2022-09-12T06:49:19.461Z,98969.97
2022-09-12T06:51:48.598Z,98983.09
2022-09-12T06:54:20.204Z,98974.66
2022-09-12T06:56:48.102Z,98945.91
2022-09-12T06:59:16.092Z,98976.00
2022-09-12T07:01:47.471Z,98970.53
2022-09-12T07:04:16.152Z,98983.66
2022-09-12T07:06:45.071Z,98972.50
2022-09-12T07:09:17.141Z,98977.88
2022-09-12T07:11:46.454Z,98986.03
2022-09-12T07:14:15.475Z,98987.72
2022-09-12T07:16:44.170Z,98933.16
2022-09-12T07:19:12.690Z,98988.03
2022-09-12T07:21:41.720Z,98957.22
2022-09-12T07:24:10.949Z,98992.91
2022-09-12T07:26:42.498Z,98998.22
2022-09-12T07:29:36.851Z,98978.72
2022-09-12T07:32:07.254Z,98920.38
2022-09-12T07:34:35.776Z,98961.81
2022-09-12T07:37:04.017Z,98995.03
2022-09-12T07:39:33.973Z,99003.38
2022-09-12T07:42:02.075Z,99005.50
2022-09-12T07:44:29.864Z,98963.75
2022-09-12T07:46:57.987Z,99013.00
2022-09-12T07:49:26.101Z,99011.66
2022-09-12T07:51:54.090Z,98990.75
2022-09-12T07:54:22.437Z,99026.78
2022-09-12T07:56:50.406Z,99015.16
2022-09-12T07:59:35.347Z,98986.94
2022-09-12T08:02:06.786Z,99021.31
2022-09-12T08:04:36.527Z,99026.78
2022-09-12T08:07:04.562Z,99023.97
2022-09-12T08:09:32.776Z,99000.25
2022-09-12T08:12:00.756Z,99028.13
2022-09-12T08:14:28.876Z,99012.50
2022-09-12T08:16:56.939Z,98894.38
2022-09-12T08:19:24.755Z,99034.22
2022-09-12T08:21:53.988Z,99000.81
2022-09-12T08:24:22.115Z,99041.06
2022-09-12T08:26:50.028Z,99042.41
2022-09-12T08:29:17.922Z,99028.41
2022-09-12T08:31:47.018Z,99035.25
2022-09-12T08:34:17.145Z,99034.75
2022-09-12T08:36:45.092Z,99004.19
2022-09-12T08:39:14.851Z,99040.56
2022-09-12T08:41:56.642Z,99030.31
2022-09-12T08:44:36.297Z,99049.75
2022-09-12T08:47:34.617Z,99064.50
2022-09-12T08:50:14.861Z,99053.19
2022-09-12T08:53:17.195Z,99059.44
2022-09-12T08:55:56.370Z,99010.41
2022-09-12T08:58:29.580Z,99052.34
2022-09-12T09:01:33.141Z,99054.84
2022-09-12T09:04:28.991Z,99019.78
2022-09-12T09:07:09.439Z,99065.56
2022-09-12T09:09:44.625Z,99062.41
2022-09-12T09:12:30.568Z,99065.06
2022-09-12T09:15:31.989Z,99065.59
2022-09-12T09:18:11.149Z,99039.28
2022-09-12T09:20:53.189Z,99072.97
2022-09-12T09:23:35.397Z,99045.66
2022-09-12T09:26:27.460Z,99029.63
2022-09-12T09:29:06.264Z,99021.16
2022-09-12T09:31:39.144Z,99027.50
2022-09-12T09:34:26.443Z,99051.84
2022-09-12T09:37:08.797Z,99075.03
2022-09-12T09:39:58.461Z,99074.41
2022-09-12T09:42:38.330Z,99064.88
2022-09-12T09:45:22.463Z,99077.41
2022-09-12T09:48:20.022Z,99078.44
2022-09-12T09:50:50.144Z,99068.59
2022-09-12T09:54:02.888Z,99064.44
2022-09-12T09:56:40.910Z,99075.47
2022-09-12T09:59:15.482Z,99083.06
2022-09-12T10:02:23.624Z,99060.56
2022-09-12T10:04:58.864Z,99070.91
2022-09-12T10:07:27.493Z,99072.38
2022-09-12T10:10:18.678Z,99083.28
2022-09-12T10:12:47.020Z,99051.56
2022-09-12T10:15:23.670Z,99084.66
2022-09-12T10:17:53.792Z,99075.81
2022-09-12T10:20:44.588Z,99071.28
2022-09-12T10:23:30.933Z,99069.13
2022-09-12T10:26:04.305Z,99063.63
2022-09-12T10:28:50.821Z,99075.63
2022-09-12T10:31:36.383Z,99052.81
2022-09-12T10:34:05.845Z,99077.94
2022-09-12T10:36:39.884Z,99079.91
2022-09-12T10:39:18.775Z,99054.13
2022-09-12T10:41:47.590Z,99089.19
2022-09-12T10:44:19.246Z,99092.78
2022-09-12T10:46:47.401Z,99088.09
2022-09-12T10:49:26.156Z,99096.47
2022-09-12T10:51:56.100Z,99069.50
2022-09-12T10:54:28.652Z,99056.13
2022-09-12T10:57:20.839Z,99090.03
2022-09-12T11:00:20.545Z,99098.38
2022-09-12T11:02:58.969Z,99093.59
2022-09-12T11:05:55.383Z,99094.38
2022-09-12T11:09:01.672Z,99100.25
2022-09-12T11:11:50.889Z,99051.81
2022-09-12T11:15:08.765Z,99105.75
2022-09-12T11:18:16.088Z,99071.69
2022-09-12T11:20:54.774Z,99109.94
2022-09-12T11:23:38.988Z,99085.28
2022-09-12T11:26:19.578Z,99082.31
2022-09-12T11:29:11.889Z,99112.44
2022-09-12T11:31:49.525Z,99120.00
2022-09-12T11:34:40.047Z,99079.28
2022-09-12T11:37:45.460Z,99128.84
2022-09-12T11:40:20.675Z,99133.31
2022-09-12T11:42:54.940Z,99055.69
2022-09-12T11:45:45.365Z,99095.69
2022-09-12T11:48:44.410Z,99123.47
2022-09-12T11:51:33.920Z,99122.31
2022-09-12T11:54:38.465Z,99113.31
2022-09-12T11:57:18.630Z,99137.63
2022-09-12T12:00:27.008Z,99097.06
2022-09-12T12:03:10.454Z,99130.03
2022-09-12T12:05:58.201Z,99132.72
2022-09-12T12:08:29.861Z,99141.88
2022-09-12T12:11:03.730Z,99132.28
2022-09-12T12:13:46.732Z,99143.28
2022-09-12T12:16:32.140Z,99145.94
2022-09-12T12:19:05.514Z,99118.53
2022-09-12T12:21:50.318Z,99143.69
2022-09-12T12:24:25.232Z,99138.66
2022-09-12T12:27:47.923Z,99150.69
2022-09-12T12:30:31.178Z,99146.88
2022-09-12T12:33:13.379Z,99150.09
2022-09-12T12:36:02.551Z,99134.91
2022-09-12T12:38:37.460Z,99139.81
2022-09-12T12:41:17.266Z,99138.13
2022-09-12T12:43:50.057Z,99150.31
2022-09-12T12:46:23.160Z,99140.00
2022-09-12T12:49:23.226Z,99151.19
2022-09-12T12:51:54.478Z,99149.31
2022-09-12T12:54:39.908Z,99147.66
2022-09-12T12:57:27.716Z,99151.31
2022-09-12T13:00:02.622Z,99152.66
2022-09-12T13:02:41.484Z,99142.66
2022-09-12T13:05:24.677Z,99100.38
2022-09-12T13:08:28.869Z,99163.25
2022-09-12T13:11:16.976Z,99124.38
2022-09-12T13:13:58.856Z,99103.56
2022-09-12T13:16:37.312Z,99107.25
2022-09-12T13:19:29.226Z,99141.34
2022-09-12T13:22:06.815Z,99141.84
2022-09-12T13:24:52.837Z,99169.38
2022-09-12T13:27:25.880Z,99166.38
2022-09-12T13:30:15.491Z,99130.84
2022-09-12T13:32:44.725Z,99174.38
2022-09-12T13:35:56.878Z,99188.56
2022-09-12T13:38:50.927Z,99176.41
2022-09-12T13:42:07.594Z,99182.88
2022-09-12T13:44:53.511Z,99184.53
2022-09-12T13:47:37.518Z,99162.69
2022-09-12T13:50:09.450Z,99168.53
2022-09-12T13:52:39.261Z,99149.84
2022-09-12T13:55:30.479Z,99176.03
2022-09-12T13:58:25.377Z,99189.22
2022-09-12T14:01:12.562Z,99184.84
2022-09-12T14:04:13.757Z,99172.53
2022-09-12T14:06:54.347Z,99186.53
2022-09-12T14:09:53.984Z,99142.69
2022-09-12T14:12:27.071Z,99194.22
2022-09-12T14:14:55.514Z,99196.41
2022-09-12T14:17:36.702Z,99185.38
2022-09-12T14:20:16.282Z,99183.22
2022-09-12T14:22:49.255Z,99139.66
2022-09-12T14:25:25.602Z,99186.22
2022-09-12T14:27:57.197Z,99177.88
2022-09-12T14:30:36.826Z,99182.72
2022-09-12T14:33:06.047Z,99205.25
2022-09-12T14:35:34.352Z,99186.56
2022-09-12T14:38:37.605Z,99158.69
2022-09-12T14:41:20.767Z,99194.06
2022-09-12T14:43:58.633Z,99185.72
2022-09-12T14:46:49.412Z,99186.53
2022-09-12T14:49:27.585Z,99164.84
2022-09-12T14:52:00.200Z,99195.38
2022-09-12T14:54:28.648Z,99195.72
2022-09-12T14:57:04.916Z,99189.88
2022-09-12T14:59:36.049Z,99192.75
2022-09-12T15:02:26.341Z,99132.19
2022-09-12T15:05:15.805Z,99194.22
2022-09-12T15:07:55.635Z,99192.25
2022-09-12T15:10:34.683Z,99197.75
2022-09-12T15:13:20.947Z,99174.56
2022-09-12T15:15:58.652Z,99192.38
2022-09-12T15:18:29.133Z,99187.06
2022-09-12T15:21:07.911Z,99185.03
2022-09-12T15:23:50.869Z,99184.53
2022-09-12T15:26:23.503Z,99192.56
2022-09-12T15:28:51.835Z,99180.53
2022-09-12T15:31:26.324Z,99190.72
2022-09-12T15:33:57.110Z,99202.56
2022-09-12T15:36:26.102Z,99198.91
2022-09-12T15:38:54.177Z,99190.56
2022-09-12T15:41:29.867Z,99187.38
2022-09-12T15:43:58.827Z,99212.25
2022-09-12T15:46:27.265Z,99161.69
2022-09-12T15:48:55.259Z,99169.53
2022-09-12T15:51:24.304Z,99196.38
2022-09-12T15:53:52.912Z,99158.19
2022-09-12T15:56:22.642Z,99208.22
2022-09-12T15:58:59.829Z,99203.22
2022-09-12T16:01:29.393Z,99211.56
2022-09-12T16:03:58.287Z,99216.56
2022-09-12T16:06:28.034Z,99204.53
2022-09-12T16:08:56.171Z,99212.72
2022-09-12T16:11:27.178Z,99211.88
2022-09-12T16:13:57.547Z,99213.88
2022-09-12T16:16:25.809Z,99214.53
2022-09-12T16:18:53.992Z,99215.56
2022-09-12T16:21:22.171Z,99216.88
2022-09-12T16:23:50.598Z,99218.91
2022-09-12T16:26:18.923Z,99215.84
2022-09-12T16:28:47.649Z,99208.44
2022-09-12T16:31:15.873Z,99167.41
2022-09-12T16:33:44.202Z,99223.25
2022-09-12T16:36:15.762Z,99227.25
2022-09-12T16:38:50.013Z,99217.56
2022-09-12T16:41:25.297Z,99186.66
2022-09-12T16:43:54.333Z,99219.88
2022-09-12T16:46:31.736Z,99225.88
2022-09-12T16:48:59.777Z,99203.44
2022-09-12T16:51:32.833Z,99197.75
2022-09-12T16:54:01.262Z,99236.03
2022-09-12T16:56:29.667Z,99229.31
2022-09-12T16:58:57.591Z,99223.28
2022-09-12T17:01:27.031Z,99232.94
2022-09-12T17:03:58.156Z,99241.28
2022-09-12T17:06:28.000Z,99239.63
2022-09-12T17:09:00.892Z,99241.91
2022-09-12T17:11:34.371Z,99200.34
2022-09-12T17:14:08.280Z,99212.03
2022-09-12T17:16:50.752Z,99243.75
2022-09-12T17:19:30.125Z,99250.91
2022-09-12T17:21:59.033Z,99237.91
2022-09-12T17:24:33.361Z,99246.41
2022-09-12T17:27:01.491Z,99261.75
2022-09-12T17:29:29.542Z,99252.25
2022-09-12T17:31:57.760Z,99256.41
2022-09-12T17:34:25.950Z,99228.53
2022-09-12T17:36:54.061Z,99197.63
2022-09-12T17:39:22.114Z,99255.38
2022-09-12T17:41:52.348Z,99204.41
2022-09-12T17:44:20.568Z,99244.19
2022-09-12T17:46:48.723Z,99255.16
2022-09-12T17:49:21.248Z,99258.00
2022-09-12T17:51:49.628Z,99254.31
2022-09-12T17:54:20.985Z,99191.16
2022-09-12T17:56:51.778Z,99263.84
2022-09-12T17:59:23.315Z,99231.72
2022-09-12T18:02:10.347Z,99260.13
2022-09-12T18:04:39.017Z,99232.06
2022-09-12T18:07:08.577Z,99259.44
2022-09-12T18:09:37.607Z,99262.97
2022-09-12T18:12:10.687Z,99222.53
2022-09-12T18:14:41.855Z,99216.31
2022-09-12T18:17:11.937Z,99247.75
2022-09-12T18:19:40.119Z,99237.53
2022-09-12T18:22:08.184Z,99265.78
2022-09-12T18:24:36.905Z,99275.44
2022-09-12T18:27:05.141Z,99266.94
2022-09-12T18:29:33.147Z,99212.63
2022-09-12T18:32:01.493Z,99277.28
2022-09-12T18:34:29.711Z,99276.44
2022-09-12T18:36:57.790Z,99273.94
2022-09-12T18:39:27.851Z,99285.28
2022-09-12T18:41:56.430Z,99272.94
2022-09-12T18:44:24.527Z,99266.94
2022-09-12T18:46:53.231Z,99230.00
2022-09-12T18:49:21.361Z,99235.03
2022-09-12T18:51:49.763Z,99235.31
2022-09-12T18:54:18.273Z,99264.22
2022-09-12T18:56:52.194Z,99267.72
2022-09-12T18:59:20.719Z,99270.84
2022-09-12T19:01:50.515Z,99266.50
2022-09-12T19:04:18.567Z,99222.91
2022-09-12T19:06:48.877Z,99253.91
2022-09-12T19:09:23.965Z,99265.03
2022-09-12T19:11:52.995Z,99240.75
2022-09-12T19:14:25.194Z,99264.44
2022-09-12T19:16:54.494Z,99272.72
2022-09-12T19:19:22.656Z,99260.72
2022-09-12T19:21:51.475Z,99256.72
2022-09-12T19:24:21.991Z,99267.19
2022-09-12T19:26:51.502Z,99259.00
2022-09-12T19:29:19.909Z,99270.16
2022-09-12T19:31:58.996Z,99252.81
2022-09-12T19:34:27.189Z,99265.50
2022-09-12T19:36:55.544Z,99268.69
2022-09-12T19:39:24.150Z,99266.72
2022-09-12T19:41:52.490Z,99261.25
2022-09-12T19:44:20.768Z,99264.75
2022-09-12T19:46:49.038Z,99257.75
2022-09-12T19:49:17.548Z,99253.94
2022-09-12T19:51:45.656Z,99255.09
2022-09-12T19:54:13.928Z,99219.00
2022-09-12T19:56:42.150Z,99250.44
2022-09-12T19:59:10.744Z,99215.34
2022-09-12T20:01:38.997Z,99243.44
2022-09-12T20:04:07.163Z,99237.91
2022-09-12T20:06:35.244Z,99257.44
2022-09-12T20:09:03.478Z,99206.31
2022-09-12T20:11:31.758Z,99267.41
2022-09-12T20:13:59.825Z,99263.91
2022-09-12T20:16:33.605Z,99270.06
2022-09-12T20:19:08.659Z,99227.97
2022-09-12T20:21:37.518Z,99259.94
2022-09-12T20:24:10.287Z,99260.63
2022-09-12T20:26:38.953Z,99226.38
2022-09-12T20:29:08.329Z,99266.41
2022-09-12T20:31:41.273Z,99262.97
2022-09-12T20:34:16.551Z,99261.59
2022-09-12T20:36:45.613Z,99274.78
2022-09-12T20:39:20.954Z,99268.94
2022-09-12T20:41:49.132Z,99271.97
2022-09-12T20:44:17.619Z,99267.34
2022-09-12T20:46:45.798Z,99261.00
2022-09-12T20:49:14.084Z,99261.16
2022-09-12T20:51:41.957Z,99252.97
2022-09-12T20:54:11.413Z,99256.06
2022-09-12T20:56:39.603Z,99242.72
2022-09-12T20:59:08.386Z,99275.44
2022-09-12T21:01:36.481Z,99234.50
2022-09-12T21:04:04.650Z,99271.81
2022-09-12T21:06:32.885Z,99278.81
2022-09-12T21:09:00.913Z,99272.50
2022-09-12T21:11:29.559Z,99282.16
2022-09-12T21:13:58.068Z,99247.41
2022-09-12T21:16:25.973Z,99273.31
2022-09-12T21:18:57.504Z,99275.38
2022-09-12T21:21:26.399Z,99271.88
2022-09-12T21:23:59.479Z,99274.53
2022-09-12T21:26:27.525Z,99230.31
2022-09-12T21:28:55.782Z,99266.22
2022-09-12T21:31:24.429Z,99270.75
2022-09-12T21:33:52.988Z,99269.22
2022-09-12T21:36:21.048Z,99257.88
2022-09-12T21:38:48.968Z,99253.88
2022-09-12T21:41:18.422Z,99256.81
2022-09-12T21:43:46.531Z,99232.75
2022-09-12T21:46:14.643Z,99268.47
2022-09-12T21:48:43.511Z,99219.53
2022-09-12T21:51:12.554Z,99232.97
2022-09-12T21:53:40.600Z,99271.59
2022-09-12T21:56:09.790Z,99235.09
2022-09-12T21:58:38.564Z,99270.81
2022-09-12T22:01:08.814Z,99271.66
2022-09-12T22:03:37.040Z,99273.81
2022-09-12T22:06:07.290Z,99274.13
2022-09-12T22:08:37.759Z,99264.91
2022-09-12T22:11:09.724Z,99272.50
2022-09-12T22:13:44.069Z,99237.13
2022-09-12T22:16:13.018Z,99162.34
2022-09-12T22:18:42.001Z,99230.53
2022-09-12T22:21:14.317Z,99287.91
2022-09-12T22:24:01.380Z,99231.94
2022-09-12T22:26:30.468Z,99274.53
2022-09-12T22:28:58.355Z,99238.56
2022-09-12T22:31:27.102Z,99274.81
2022-09-12T22:33:57.508Z,99217.44
2022-09-12T22:36:30.520Z,99269.81
2022-09-12T22:38:59.909Z,99274.44
2022-09-12T22:41:28.545Z,99222.28
2022-09-12T22:43:57.477Z,99228.97
2022-09-12T22:46:25.836Z,99232.44
2022-09-12T22:48:55.808Z,99250.19
2022-09-12T22:51:23.970Z,99273.69
2022-09-12T22:53:52.267Z,99262.63
2022-09-12T22:56:20.075Z,99265.97
2022-09-12T22:58:48.089Z,99262.38
2022-09-12T23:01:16.078Z,99266.94
2022-09-12T23:03:44.684Z,99248.66
2022-09-12T23:06:12.564Z,99260.59
2022-09-12T23:08:41.071Z,99199.66
2022-09-12T23:11:17.441Z,99256.00
2022-09-12T23:13:50.632Z,99253.78
2022-09-12T23:16:25.208Z,99255.31
2022-09-12T23:18:54.484Z,99235.06
2022-09-12T23:21:26.181Z,99253.34
2022-09-12T23:23:54.193Z,99251.06
2022-09-12T23:26:30.684Z,99254.56
2022-09-12T23:29:05.730Z,99253.56
2022-09-12T23:31:49.788Z,99256.06
2022-09-12T23:34:21.155Z,99265.66
2022-09-12T23:36:49.256Z,99265.19
2022-09-12T23:39:17.176Z,99269.25
2022-09-12T23:41:45.020Z,99264.16
2022-09-12T23:44:13.162Z,99263.69
2022-09-12T23:46:41.063Z,99252.25
2022-09-12T23:49:09.341Z,99250.41
2022-09-12T23:51:38.836Z,99241.16
2022-09-12T23:54:06.746Z,99238.03
2022-09-12T23:56:34.660Z,99203.22
2022-09-12T23:59:02.987Z,99220.41
